Accueil
METAR-TAF:

METAR-TAF

Aéroports :

Aéroport de Sandakan

Sandakan, Malaisie

latitude: 05-54N, longitude: 118-04E, altitude: 12 m

Observation

Le bulletin a été fait il y a 52 minutes, à 02:00 UTC
Vent 5 kt de direction variable
Température 31°C
Humidité 66%
Pression 1009 hPa
Visibilité 10 km ou plus
Quelques nuages à une hauteur de 1600 ft

METAR: WBKS 220200Z VRB05KT 9999 FEW016 31/24 Q1009

Heure: 10:52 (02:52 UTC)

Prévision

Le bulletin a été fait il y a 3 heures et 52 minutes, à 23:00 UTC
Prévision valable du 22 à 00 UTC au 23 à 00 UTC
Vent 6 kt de sud/sud-est
Visibilité 10 km ou plus
Quelques nuages à une hauteur de 1600 ft
Temporairement
du 22 à 06 UTC au 22 à 10 UTC
Visibilité: 5000 m
Quelques nuages à une hauteur de 1200 ft
Quelques nuages à une hauteur de 1600 ft, Cumulonimbus.
Nuages épars à une hauteur de 4000 ft
orage, pluie,

TAF: WBKS 212300Z 2200/2300 15006KT 9999 FEW016 TEMPO 2206/2210 5000 TSRA FEW012 FEW016CB SCT040

Observations et prévisions météorologiques de plus de 4000 aéroports (messages METAR et TAF).

Les stations disponibles sont représentées par des disques jaunes et rouges sur la carte.

Passer la souris dessus pour voir le nom de la station.

Cliquer dessus pour voir les observations et prévisions météorologiques.

Pour changer de carte: cliquez sur les boutons verts avec une croix noire pour zoomer, sur le bouton vert avec un tiret pour effectuer un zoom arrière, ou sur les flèches vertes pour les cartes adjacentes.


METAR-TAF: